sensor_id;sensor_type;location;lat;lon;timestamp;pressure;altitude;pressure_sealevel;temperature;humidity
12636;BME280;6383;50.830;7.210;2023-03-03T00:01:16;101378.16;;;4.47;52.18
12636;BME280;6383;50.830;7.210;2023-03-03T00:03:45;101388.34;;;4.45;52.38
12636;BME280;6383;50.830;7.210;2023-03-03T00:06:13;101389.44;;;4.44;52.30
12636;BME280;6383;50.830;7.210;2023-03-03T00:08:43;101399.63;;;4.42;52.48
12636;BME280;6383;50.830;7.210;2023-03-03T00:11:12;101383.69;;;4.41;52.11
12636;BME280;6383;50.830;7.210;2023-03-03T00:13:45;101392.25;;;4.38;52.07
12636;BME280;6383;50.830;7.210;2023-03-03T00:16:17;101388.50;;;4.39;52.81
12636;BME280;6383;50.830;7.210;2023-03-03T00:18:47;101394.72;;;4.39;52.38
12636;BME280;6383;50.830;7.210;2023-03-03T00:21:30;101393.31;;;4.37;51.72
12636;BME280;6383;50.830;7.210;2023-03-03T00:24:21;101403.72;;;4.33;52.15
12636;BME280;6383;50.830;7.210;2023-03-03T00:26:52;101406.34;;;4.28;52.53
12636;BME280;6383;50.830;7.210;2023-03-03T00:29:26;101406.81;;;4.25;52.60
12636;BME280;6383;50.830;7.210;2023-03-03T00:32:21;101414.06;;;4.24;52.40
12636;BME280;6383;50.830;7.210;2023-03-03T00:34:51;101414.06;;;4.24;52.76
12636;BME280;6383;50.830;7.210;2023-03-03T00:37:28;101407.88;;;4.24;52.69
12636;BME280;6383;50.830;7.210;2023-03-03T00:40:10;101402.13;;;4.20;52.87
12636;BME280;6383;50.830;7.210;2023-03-03T00:42:42;101406.03;;;4.13;53.05
12636;BME280;6383;50.830;7.210;2023-03-03T00:45:23;101404.25;;;4.07;53.07
12636;BME280;6383;50.830;7.210;2023-03-03T00:47:55;101411.41;;;4.01;53.13
12636;BME280;6383;50.830;7.210;2023-03-03T00:50:29;101418.09;;;3.99;52.94
12636;BME280;6383;50.830;7.210;2023-03-03T00:53:02;101420.44;;;3.95;53.14
12636;BME280;6383;50.830;7.210;2023-03-03T00:55:32;101417.75;;;3.95;53.14
12636;BME280;6383;50.830;7.210;2023-03-03T00:58:03;101421.25;;;3.96;53.09
12636;BME280;6383;50.830;7.210;2023-03-03T01:00:32;101415.28;;;3.94;53.48
12636;BME280;6383;50.830;7.210;2023-03-03T01:03:05;101407.69;;;3.90;53.81
12636;BME280;6383;50.830;7.210;2023-03-03T01:05:34;101413.53;;;3.87;53.12
12636;BME280;6383;50.830;7.210;2023-03-03T01:08:02;101415.91;;;3.84;53.76
12636;BME280;6383;50.830;7.210;2023-03-03T01:10:35;101415.06;;;3.83;53.43
12636;BME280;6383;50.830;7.210;2023-03-03T01:13:06;101425.25;;;3.81;53.56
12636;BME280;6383;50.830;7.210;2023-03-03T01:15:35;101422.19;;;3.78;53.82
12636;BME280;6383;50.830;7.210;2023-03-03T01:18:04;101413.75;;;3.74;53.68
12636;BME280;6383;50.830;7.210;2023-03-03T01:20:31;101411.78;;;3.70;53.80
12636;BME280;6383;50.830;7.210;2023-03-03T01:23:01;101412.25;;;3.67;53.71
12636;BME280;6383;50.830;7.210;2023-03-03T01:25:28;101417.06;;;3.65;54.50
12636;BME280;6383;50.830;7.210;2023-03-03T01:27:58;101411.06;;;3.63;54.20
12636;BME280;6383;50.830;7.210;2023-03-03T01:30:27;101412.94;;;3.62;54.09
12636;BME280;6383;50.830;7.210;2023-03-03T01:32:56;101417.75;;;3.60;54.53
12636;BME280;6383;50.830;7.210;2023-03-03T01:35:25;101419.84;;;3.58;54.18
12636;BME280;6383;50.830;7.210;2023-03-03T01:37:53;101420.34;;;3.55;54.28
12636;BME280;6383;50.830;7.210;2023-03-03T01:40:22;101419.97;;;3.51;54.76
12636;BME280;6383;50.830;7.210;2023-03-03T01:42:52;101422.31;;;3.48;54.30
12636;BME280;6383;50.830;7.210;2023-03-03T01:45:23;101422.31;;;3.48;54.47
12636;BME280;6383;50.830;7.210;2023-03-03T01:47:57;101430.38;;;3.48;54.87
12636;BME280;6383;50.830;7.210;2023-03-03T01:50:35;101425.00;;;3.48;54.95
12636;BME280;6383;50.830;7.210;2023-03-03T01:53:05;101427.69;;;3.48;55.08
12636;BME280;6383;50.830;7.210;2023-03-03T01:55:38;101422.31;;;3.48;54.86
12636;BME280;6383;50.830;7.210;2023-03-03T01:58:11;101432.84;;;3.49;54.59
12636;BME280;6383;50.830;7.210;2023-03-03T02:00:45;101423.56;;;3.45;54.64
12636;BME280;6383;50.830;7.210;2023-03-03T02:03:19;101421.34;;;3.42;55.02
12636;BME280;6383;50.830;7.210;2023-03-03T02:05:49;101419.97;;;3.40;54.96
12636;BME280;6383;50.830;7.210;2023-03-03T02:08:24;101409.88;;;3.35;55.18
12636;BME280;6383;50.830;7.210;2023-03-03T02:10:54;101409.53;;;3.32;55.07
12636;BME280;6383;50.830;7.210;2023-03-03T02:13:24;101418.06;;;3.29;54.98
12636;BME280;6383;50.830;7.210;2023-03-03T02:15:53;101419.91;;;3.28;54.96
12636;BME280;6383;50.830;7.210;2023-03-03T02:18:23;101411.28;;;3.26;55.10
12636;BME280;6383;50.830;7.210;2023-03-03T02:20:56;101418.75;;;3.24;55.40
12636;BME280;6383;50.830;7.210;2023-03-03T02:23:30;101425.78;;;3.25;55.15
12636;BME280;6383;50.830;7.210;2023-03-03T02:26:08;101426.59;;;3.26;55.25
12636;BME280;6383;50.830;7.210;2023-03-03T02:28:37;101424.97;;;3.25;54.98
12636;BME280;6383;50.830;7.210;2023-03-03T02:31:08;101425.41;;;3.22;55.07
12636;BME280;6383;50.830;7.210;2023-03-03T02:33:40;101434.75;;;3.19;55.43
12636;BME280;6383;50.830;7.210;2023-03-03T02:36:12;101436.84;;;3.17;55.71
12636;BME280;6383;50.830;7.210;2023-03-03T02:38:47;101432.91;;;3.19;55.93
12636;BME280;6383;50.830;7.210;2023-03-03T02:41:25;101430.66;;;3.16;55.45
12636;BME280;6383;50.830;7.210;2023-03-03T02:43:59;101438.13;;;3.14;55.61
12636;BME280;6383;50.830;7.210;2023-03-03T02:46:27;101438.13;;;3.14;56.07
12636;BME280;6383;50.830;7.210;2023-03-03T02:48:57;101444.09;;;3.16;55.47
12636;BME280;6383;50.830;7.210;2023-03-03T02:51:26;101447.38;;;3.18;55.44
12636;BME280;6383;50.830;7.210;2023-03-03T02:53:54;101444.47;;;3.20;56.02
12636;BME280;6383;50.830;7.210;2023-03-03T02:56:24;101446.34;;;3.19;55.99
12636;BME280;6383;50.830;7.210;2023-03-03T02:58:53;101448.22;;;3.19;55.79
12636;BME280;6383;50.830;7.210;2023-03-03T03:01:22;101450.31;;;3.17;55.64
12636;BME280;6383;50.830;7.210;2023-03-03T03:03:51;101447.84;;;3.15;55.42
12636;BME280;6383;50.830;7.210;2023-03-03T03:06:20;101448.06;;;3.14;55.89
12636;BME280;6383;50.830;7.210;2023-03-03T03:08:50;101455.81;;;3.10;55.86
12636;BME280;6383;50.830;7.210;2023-03-03T03:11:19;101457.31;;;3.06;56.21
12636;BME280;6383;50.830;7.210;2023-03-03T03:13:49;101464.19;;;3.02;55.87
12636;BME280;6383;50.830;7.210;2023-03-03T03:16:17;101463.81;;;2.99;56.47
12636;BME280;6383;50.830;7.210;2023-03-03T03:18:45;101459.41;;;3.04;56.05
12636;BME280;6383;50.830;7.210;2023-03-03T03:21:14;101457.31;;;3.06;56.01
12636;BME280;6383;50.830;7.210;2023-03-03T03:23:43;101458.94;;;3.07;56.18
12636;BME280;6383;50.830;7.210;2023-03-03T03:26:12;101458.13;;;3.07;56.25
12636;BME280;6383;50.830;7.210;2023-03-03T03:28:41;101454.59;;;3.06;56.10
12636;BME280;6383;50.830;7.210;2023-03-03T03:31:12;101454.00;;;3.04;56.23
12636;BME280;6383;50.830;7.210;2023-03-03T03:33:40;101450.97;;;3.01;55.94
12636;BME280;6383;50.830;7.210;2023-03-03T03:36:09;101452.09;;;2.93;55.84
12636;BME280;6383;50.830;7.210;2023-03-03T03:38:39;101451.59;;;2.84;56.03
12636;BME280;6383;50.830;7.210;2023-03-03T03:41:06;101455.19;;;2.78;56.38
12636;BME280;6383;50.830;7.210;2023-03-03T03:43:35;101459.16;;;2.76;56.06
12636;BME280;6383;50.830;7.210;2023-03-03T03:46:03;101469.31;;;2.74;56.74
12636;BME280;6383;50.830;7.210;2023-03-03T03:48:34;101472.66;;;2.69;56.70
12636;BME280;6383;50.830;7.210;2023-03-03T03:51:02;101478.28;;;2.68;56.78
12636;BME280;6383;50.830;7.210;2023-03-03T03:53:30;101481.56;;;2.70;56.69
12636;BME280;6383;50.830;7.210;2023-03-03T03:55:59;101478.28;;;2.68;56.19
12636;BME280;6383;50.830;7.210;2023-03-03T03:58:26;101476.66;;;2.67;55.99
12636;BME280;6383;50.830;7.210;2023-03-03T04:01:01;101475.44;;;2.63;56.63
12636;BME280;6383;50.830;7.210;2023-03-03T04:03:30;101478.59;;;2.60;56.50
12636;BME280;6383;50.830;7.210;2023-03-03T04:06:00;101479.84;;;2.57;56.76
12636;BME280;6383;50.830;7.210;2023-03-03T04:08:28;101489.19;;;2.55;56.43
12636;BME280;6383;50.830;7.210;2023-03-03T04:10:58;101485.66;;;2.54;56.78
12636;BME280;6383;50.830;7.210;2023-03-03T04:13:26;101481.13;;;2.55;56.89
12636;BME280;6383;50.830;7.210;2023-03-03T04:15:58;101481.59;;;2.52;56.62
12636;BME280;6383;50.830;7.210;2023-03-03T04:18:27;101476.22;;;2.52;56.99
12636;BME280;6383;50.830;7.210;2023-03-03T04:20:55;101472.34;;;2.47;56.50
12636;BME280;6383;50.830;7.210;2023-03-03T04:23:25;101480.22;;;2.42;56.75
12636;BME280;6383;50.830;7.210;2023-03-03T04:25:54;101482.78;;;2.37;56.85
12636;BME280;6383;50.830;7.210;2023-03-03T04:28:23;101483.44;;;2.33;56.90
12636;BME280;6383;50.830;7.210;2023-03-03T04:30:54;101487.63;;;2.29;56.81
12636;BME280;6383;50.830;7.210;2023-03-03T04:33:23;101487.84;;;2.27;57.05
12636;BME280;6383;50.830;7.210;2023-03-03T04:35:52;101482.47;;;2.27;57.09
12636;BME280;6383;50.830;7.210;2023-03-03T04:38:21;101485.16;;;2.27;56.89
12636;BME280;6383;50.830;7.210;2023-03-03T04:40:52;101484.09;;;2.28;56.85
12636;BME280;6383;50.830;7.210;2023-03-03T04:43:21;101488.06;;;2.26;56.98
12636;BME280;6383;50.830;7.210;2023-03-03T04:45:50;101497.97;;;2.25;57.04
12636;BME280;6383;50.830;7.210;2023-03-03T04:48:20;101497.97;;;2.25;57.32
12636;BME280;6383;50.830;7.210;2023-03-03T04:50:47;101500.22;;;2.28;56.98
12636;BME280;6383;50.830;7.210;2023-03-03T04:53:15;101504.56;;;2.29;57.08
12636;BME280;6383;50.830;7.210;2023-03-03T04:55:44;101494.84;;;2.28;56.67
12636;BME280;6383;50.830;7.210;2023-03-03T04:58:15;101499.63;;;2.26;56.73
12636;BME280;6383;50.830;7.210;2023-03-03T05:00:46;101490.38;;;2.22;56.88
12636;BME280;6383;50.830;7.210;2023-03-03T05:03:20;101506.94;;;2.19;57.33
12636;BME280;6383;50.830;7.210;2023-03-03T05:05:48;101506.34;;;2.17;57.37
12636;BME280;6383;50.830;7.210;2023-03-03T05:08:18;101508.63;;;2.13;57.04
12636;BME280;6383;50.830;7.210;2023-03-03T05:10:50;101522.28;;;2.12;57.15
12636;BME280;6383;50.830;7.210;2023-03-03T05:13:21;101525.41;;;2.09;57.66
12636;BME280;6383;50.830;7.210;2023-03-03T05:15:49;101517.34;;;2.09;57.45
12636;BME280;6383;50.830;7.210;2023-03-03T05:18:19;101531.81;;;2.08;57.65
12636;BME280;6383;50.830;7.210;2023-03-03T05:20:48;101524.81;;;2.07;57.33
12636;BME280;6383;50.830;7.210;2023-03-03T05:23:17;101525.66;;;2.07;57.75
12636;BME280;6383;50.830;7.210;2023-03-03T05:25:46;101528.75;;;2.04;57.88
12636;BME280;6383;50.830;7.210;2023-03-03T05:28:18;101524.44;;;2.03;57.85
12636;BME280;6383;50.830;7.210;2023-03-03T05:30:48;101535.16;;;2.03;58.24
12636;BME280;6383;50.830;7.210;2023-03-03T05:33:17;101538.47;;;2.05;58.29
12636;BME280;6383;50.830;7.210;2023-03-03T05:35:46;101543.00;;;2.05;57.97
12636;BME280;6383;50.830;7.210;2023-03-03T05:38:15;101543.84;;;2.05;58.37
12636;BME280;6383;50.830;7.210;2023-03-03T05:40:44;101543.38;;;2.08;58.39
12636;BME280;6383;50.830;7.210;2023-03-03T05:43:14;101549.13;;;2.12;58.44
12636;BME280;6383;50.830;7.210;2023-03-03T05:45:43;101545.41;;;2.13;58.55
12636;BME280;6383;50.830;7.210;2023-03-03T05:48:13;101544.16;;;2.16;58.71
12636;BME280;6383;50.830;7.210;2023-03-03T05:50:41;101549.91;;;2.19;59.27
12636;BME280;6383;50.830;7.210;2023-03-03T05:53:10;101551.09;;;2.23;59.14
12636;BME280;6383;50.830;7.210;2023-03-03T05:55:38;101540.50;;;2.28;59.17
12636;BME280;6383;50.830;7.210;2023-03-03T05:58:07;101548.94;;;2.32;59.76
12636;BME280;6383;50.830;7.210;2023-03-03T06:00:35;101546.66;;;2.35;59.47
12636;BME280;6383;50.830;7.210;2023-03-03T06:03:03;101548.88;;;2.38;59.78
12636;BME280;6383;50.830;7.210;2023-03-03T06:05:33;101548.81;;;2.45;59.77
12636;BME280;6383;50.830;7.210;2023-03-03T06:08:01;101552.28;;;2.52;59.78
12636;BME280;6383;50.830;7.210;2023-03-03T06:10:30;101550.16;;;2.54;59.85
12636;BME280;6383;50.830;7.210;2023-03-03T06:12:59;101547.63;;;2.59;59.88
12636;BME280;6383;50.830;7.210;2023-03-03T06:15:27;101549.66;;;2.64;59.84
12636;BME280;6383;50.830;7.210;2023-03-03T06:17:56;101558.31;;;2.66;60.13
12636;BME280;6383;50.830;7.210;2023-03-03T06:20:25;101558.91;;;2.68;60.31
12636;BME280;6383;50.830;7.210;2023-03-03T06:22:55;101560.09;;;2.72;59.99
12636;BME280;6383;50.830;7.210;2023-03-03T06:25:22;101564.00;;;2.76;60.25
12636;BME280;6383;50.830;7.210;2023-03-03T06:27:51;101569.97;;;2.78;60.62
12636;BME280;6383;50.830;7.210;2023-03-03T06:30:20;101571.38;;;2.80;60.72
12636;BME280;6383;50.830;7.210;2023-03-03T06:32:48;101563.06;;;2.82;60.37
12636;BME280;6383;50.830;7.210;2023-03-03T06:35:18;101568.22;;;2.83;60.43
12636;BME280;6383;50.830;7.210;2023-03-03T06:37:46;101566.59;;;2.82;60.62
12636;BME280;6383;50.830;7.210;2023-03-03T06:40:18;101573.16;;;2.87;60.93
12636;BME280;6383;50.830;7.210;2023-03-03T06:42:47;101577.06;;;2.91;60.90
12636;BME280;6383;50.830;7.210;2023-03-03T06:45:15;101585.50;;;2.94;60.84
12636;BME280;6383;50.830;7.210;2023-03-03T06:47:44;101590.41;;;2.97;60.72
12636;BME280;6383;50.830;7.210;2023-03-03T06:50:18;101596.38;;;2.99;61.05
12636;BME280;6383;50.830;7.210;2023-03-03T06:52:48;101597.81;;;3.02;61.35
12636;BME280;6383;50.830;7.210;2023-03-03T06:55:22;101604.59;;;3.04;60.86
12636;BME280;6383;50.830;7.210;2023-03-03T06:57:51;101602.28;;;3.08;61.47
12636;BME280;6383;50.830;7.210;2023-03-03T07:00:23;101609.31;;;3.09;61.70
12636;BME280;6383;50.830;7.210;2023-03-03T07:02:56;101615.31;;;3.11;61.54
12636;BME280;6383;50.830;7.210;2023-03-03T07:05:27;101623.72;;;3.14;61.69
12636;BME280;6383;50.830;7.210;2023-03-03T07:07:56;101624.09;;;3.18;61.67
12636;BME280;6383;50.830;7.210;2023-03-03T07:10:26;101616.19;;;3.23;62.09
12636;BME280;6383;50.830;7.210;2023-03-03T07:12:57;101629.75;;;3.28;62.09
12636;BME280;6383;50.830;7.210;2023-03-03T07:15:33;101632.81;;;3.32;62.16
12636;BME280;6383;50.830;7.210;2023-03-03T07:18:01;101640.00;;;3.38;61.97
12636;BME280;6383;50.830;7.210;2023-03-03T07:20:35;101634.19;;;3.41;62.54
12636;BME280;6383;50.830;7.210;2023-03-03T07:23:14;101625.19;;;3.47;62.41
12636;BME280;6383;50.830;7.210;2023-03-03T07:25:47;101639.59;;;3.52;62.66
12636;BME280;6383;50.830;7.210;2023-03-03T07:28:21;101630.81;;;3.57;62.55
12636;BME280;6383;50.830;7.210;2023-03-03T07:30:51;101637.19;;;3.63;62.98
12636;BME280;6383;50.830;7.210;2023-03-03T07:33:25;101636.50;;;3.67;62.45
12636;BME280;6383;50.830;7.210;2023-03-03T07:35:55;101639.56;;;3.71;62.42
12636;BME280;6383;50.830;7.210;2023-03-03T07:38:34;101635.34;;;3.75;62.25
12636;BME280;6383;50.830;7.210;2023-03-03T07:41:12;101641.09;;;3.78;62.16
12636;BME280;6383;50.830;7.210;2023-03-03T07:43:47;101644.16;;;3.82;62.41
12636;BME280;6383;50.830;7.210;2023-03-03T07:46:29;101647.22;;;3.85;62.45
12636;BME280;6383;50.830;7.210;2023-03-03T07:49:01;101650.50;;;3.87;62.19
12636;BME280;6383;50.830;7.210;2023-03-03T07:51:39;101657.06;;;3.92;62.43
12636;BME280;6383;50.830;7.210;2023-03-03T07:54:27;101658.72;;;3.93;62.17
12636;BME280;6383;50.830;7.210;2023-03-03T07:57:04;101656.03;;;3.93;62.11
12636;BME280;6383;50.830;7.210;2023-03-03T07:59:41;101665.28;;;3.97;62.29
12636;BME280;6383;50.830;7.210;2023-03-03T08:02:32;101668.91;;;4.02;61.98
12636;BME280;6383;50.830;7.210;2023-03-03T08:05:23;101662.47;;;4.03;61.59
12636;BME280;6383;50.830;7.210;2023-03-03T08:07:55;101667.28;;;4.01;61.98
12636;BME280;6383;50.830;7.210;2023-03-03T08:10:34;101667.28;;;4.01;61.94
12636;BME280;6383;50.830;7.210;2023-03-03T08:13:16;101665.41;;;4.02;61.95
12636;BME280;6383;50.830;7.210;2023-03-03T08:15:46;101668.91;;;4.02;62.26
12636;BME280;6383;50.830;7.210;2023-03-03T08:18:22;101666.81;;;4.04;62.22
12636;BME280;6383;50.830;7.210;2023-03-03T08:20:55;101674.22;;;4.09;62.14
12636;BME280;6383;50.830;7.210;2023-03-03T08:23:24;101680.81;;;4.13;61.81
12636;BME280;6383;50.830;7.210;2023-03-03T08:25:52;101680.91;;;4.18;61.88
12636;BME280;6383;50.830;7.210;2023-03-03T08:28:22;101682.94;;;4.22;61.54
12636;BME280;6383;50.830;7.210;2023-03-03T08:30:51;101678.50;;;4.28;61.63
12636;BME280;6383;50.830;7.210;2023-03-03T08:33:19;101685.28;;;4.31;61.61
12636;BME280;6383;50.830;7.210;2023-03-03T08:35:48;101687.75;;;4.32;61.45
12636;BME280;6383;50.830;7.210;2023-03-03T08:38:19;101680.13;;;4.29;61.86
12636;BME280;6383;50.830;7.210;2023-03-03T08:40:49;101682.25;;;4.39;61.10
12636;BME280;6383;50.830;7.210;2023-03-03T08:43:18;101690.13;;;4.40;61.27
12636;BME280;6383;50.830;7.210;2023-03-03T08:45:52;101693.19;;;4.44;61.37
12636;BME280;6383;50.830;7.210;2023-03-03T08:48:20;101689.97;;;4.35;61.38
12636;BME280;6383;50.830;7.210;2023-03-03T08:50:48;101694.66;;;4.28;62.16
12636;BME280;6383;50.830;7.210;2023-03-03T08:53:18;101703.22;;;4.25;61.88
12636;BME280;6383;50.830;7.210;2023-03-03T08:55:48;101705.31;;;4.23;61.39
12636;BME280;6383;50.830;7.210;2023-03-03T08:58:20;101699.31;;;4.21;61.88
12636;BME280;6383;50.830;7.210;2023-03-03T09:00:51;101700.38;;;4.20;61.76
12636;BME280;6383;50.830;7.210;2023-03-03T09:03:20;101695.81;;;4.20;62.02
12636;BME280;6383;50.830;7.210;2023-03-03T09:05:49;101704.47;;;4.22;62.09
12636;BME280;6383;50.830;7.210;2023-03-03T09:08:18;101710.25;;;4.26;62.49
12636;BME280;6383;50.830;7.210;2023-03-03T09:10:48;101717.03;;;4.29;62.40
12636;BME280;6383;50.830;7.210;2023-03-03T09:13:18;101719.50;;;4.30;62.51
12636;BME280;6383;50.830;7.210;2023-03-03T09:15:48;101718.44;;;4.31;62.37
12636;BME280;6383;50.830;7.210;2023-03-03T09:18:18;101719.03;;;4.33;62.32
12636;BME280;6383;50.830;7.210;2023-03-03T09:20:48;101727.72;;;4.35;62.50
12636;BME280;6383;50.830;7.210;2023-03-03T09:23:28;101727.47;;;4.37;62.13
12636;BME280;6383;50.830;7.210;2023-03-03T09:25:57;101725.84;;;4.36;62.14
12636;BME280;6383;50.830;7.210;2023-03-03T09:28:28;101726.88;;;4.35;62.34
12636;BME280;6383;50.830;7.210;2023-03-03T09:31:00;101727.72;;;4.35;62.25
12636;BME280;6383;50.830;7.210;2023-03-03T09:33:40;101729.00;;;4.33;61.73
12636;BME280;6383;50.830;7.210;2023-03-03T09:36:18;101739.16;;;4.31;62.19
12636;BME280;6383;50.830;7.210;2023-03-03T09:38:49;101724.53;;;4.27;61.76
12636;BME280;6383;50.830;7.210;2023-03-03T09:41:44;101733.22;;;4.29;62.01
12636;BME280;6383;50.830;7.210;2023-03-03T09:44:35;101732.41;;;4.28;62.02
12636;BME280;6383;50.830;7.210;2023-03-03T09:50:15;101738.94;;;4.32;62.62
12636;BME280;6383;50.830;7.210;2023-03-03T09:52:51;101737.91;;;4.33;62.31
12636;BME280;6383;50.830;7.210;2023-03-03T09:55:33;101747.75;;;4.39;62.29
12636;BME280;6383;50.830;7.210;2023-03-03T09:58:18;101750.84;;;4.43;62.24
12636;BME280;6383;50.830;7.210;2023-03-03T10:00:58;101748.72;;;4.45;62.43
12636;BME280;6383;50.830;7.210;2023-03-03T10:06:32;101750.72;;;4.49;62.74
12636;BME280;6383;50.830;7.210;2023-03-03T10:09:26;101755.88;;;4.51;61.90
12636;BME280;6383;50.830;7.210;2023-03-03T10:12:04;101756.09;;;4.49;62.56
12636;BME280;6383;50.830;7.210;2023-03-03T10:14:54;101758.19;;;4.47;62.34
12636;BME280;6383;50.830;7.210;2023-03-03T10:17:37;101766.88;;;4.49;62.06
12636;BME280;6383;50.830;7.210;2023-03-03T10:20:34;101756.69;;;4.51;61.91
12636;BME280;6383;50.830;7.210;2023-03-03T10:23:16;101762.69;;;4.53;61.99
12636;BME280;6383;50.830;7.210;2023-03-03T10:26:07;101762.00;;;4.58;61.61
12636;BME280;6383;50.830;7.210;2023-03-03T10:28:56;101759.88;;;4.60;62.03
12636;BME280;6383;50.830;7.210;2023-03-03T10:31:39;101759.41;;;4.63;62.47
12636;BME280;6383;50.830;7.210;2023-03-03T10:34:21;101756.63;;;4.70;62.36
12636;BME280;6383;50.830;7.210;2023-03-03T10:36:58;101755.13;;;4.74;62.32
12636;BME280;6383;50.830;7.210;2023-03-03T10:39:51;101755.22;;;4.79;62.53
12636;BME280;6383;50.830;7.210;2023-03-03T10:42:35;101752.28;;;4.80;61.40
12636;BME280;6383;50.830;7.210;2023-03-03T10:48:19;101747.50;;;4.82;61.56
12636;BME280;6383;50.830;7.210;2023-03-03T10:50:57;101751.97;;;4.88;62.42
12636;BME280;6383;50.830;7.210;2023-03-03T10:53:31;101758.06;;;4.95;62.06
12636;BME280;6383;50.830;7.210;2023-03-03T10:56:14;101754.44;;;5.02;61.89
12636;BME280;6383;50.830;7.210;2023-03-03T10:58:59;101749.13;;;5.07;61.96
12636;BME280;6383;50.830;7.210;2023-03-03T11:01:42;101751.13;;;5.11;61.49
12636;BME280;6383;50.830;7.210;2023-03-03T11:04:29;101750.44;;;5.16;61.34
12636;BME280;6383;50.830;7.210;2023-03-03T11:07:05;101741.63;;;5.20;61.63
12636;BME280;6383;50.830;7.210;2023-03-03T11:09:45;101749.59;;;5.27;61.70
12636;BME280;6383;50.830;7.210;2023-03-03T11:12:29;101751.59;;;5.31;61.72
12636;BME280;6383;50.830;7.210;2023-03-03T11:15:13;101753.34;;;5.38;61.72
12636;BME280;6383;50.830;7.210;2023-03-03T11:17:53;101762.84;;;5.40;62.11
12636;BME280;6383;50.830;7.210;2023-03-03T11:20:32;101757.81;;;5.44;60.96
12636;BME280;6383;50.830;7.210;2023-03-03T11:23:15;101756.53;;;5.46;60.72
12636;BME280;6383;50.830;7.210;2023-03-03T11:25:50;101758.16;;;5.47;61.32
12636;BME280;6383;50.830;7.210;2023-03-03T11:28:38;101756.84;;;5.50;61.23
12636;BME280;6383;50.830;7.210;2023-03-03T11:31:15;101759.31;;;5.51;60.59
12636;BME280;6383;50.830;7.210;2023-03-03T11:33:57;101753.69;;;5.53;61.03
12636;BME280;6383;50.830;7.210;2023-03-03T11:36:31;101748.03;;;5.54;60.73
12636;BME280;6383;50.830;7.210;2023-03-03T11:39:04;101754.38;;;5.60;60.74
12636;BME280;6383;50.830;7.210;2023-03-03T11:41:38;101744.72;;;5.64;61.23
12636;BME280;6383;50.830;7.210;2023-03-03T11:44:17;101745.66;;;5.70;60.84
12636;BME280;6383;50.830;7.210;2023-03-03T11:46:52;101742.84;;;5.76;61.11
12636;BME280;6383;50.830;7.210;2023-03-03T11:49:27;101730.22;;;5.82;61.16
12636;BME280;6383;50.830;7.210;2023-03-03T11:52:07;101736.38;;;5.89;60.98
12636;BME280;6383;50.830;7.210;2023-03-03T11:54:46;101728.09;;;5.95;60.65
12636;BME280;6383;50.830;7.210;2023-03-03T11:57:19;101721.75;;;6.01;60.34
12636;BME280;6383;50.830;7.210;2023-03-03T12:00:08;101717.53;;;6.22;61.78
12636;BME280;6383;50.830;7.210;2023-03-03T12:05:46;101709.06;;;6.64;60.59
12636;BME280;6383;50.830;7.210;2023-03-03T12:08:25;101696.50;;;6.75;59.92
12636;BME280;6383;50.830;7.210;2023-03-03T12:11:00;101696.72;;;6.90;59.49
12636;BME280;6383;50.830;7.210;2023-03-03T12:13:40;101698.16;;;7.14;59.34
12636;BME280;6383;50.830;7.210;2023-03-03T12:16:22;101688.53;;;7.45;59.93
12636;BME280;6383;50.830;7.210;2023-03-03T12:19:09;101690.38;;;7.83;60.86
12636;BME280;6383;50.830;7.210;2023-03-03T12:24:45;101682.97;;;8.59;59.68
12636;BME280;6383;50.830;7.210;2023-03-03T12:27:22;101675.16;;;9.05;58.87
12636;BME280;6383;50.830;7.210;2023-03-03T12:30:01;101676.66;;;9.38;57.61
12636;BME280;6383;50.830;7.210;2023-03-03T12:32:51;101673.75;;;9.60;55.83
12636;BME280;6383;50.830;7.210;2023-03-03T12:35:29;101682.81;;;9.90;55.64
12636;BME280;6383;50.830;7.210;2023-03-03T12:38:02;101676.31;;;10.02;54.24
12636;BME280;6383;50.830;7.210;2023-03-03T12:40:35;101672.03;;;10.21;52.85
12636;BME280;6383;50.830;7.210;2023-03-03T12:43:15;101669.56;;;10.40;52.47
12636;BME280;6383;50.830;7.210;2023-03-03T12:45:53;101662.78;;;10.52;51.90
12636;BME280;6383;50.830;7.210;2023-03-03T12:48:34;101656.50;;;10.62;51.38
12636;BME280;6383;50.830;7.210;2023-03-03T12:51:13;101648.88;;;10.69;51.64
12636;BME280;6383;50.830;7.210;2023-03-03T12:53:53;101655.41;;;10.63;50.63
12636;BME280;6383;50.830;7.210;2023-03-03T12:56:29;101656.50;;;10.57;49.99
12636;BME280;6383;50.830;7.210;2023-03-03T12:59:08;101658.97;;;10.48;49.82
12636;BME280;6383;50.830;7.210;2023-03-03T13:01:51;101658.44;;;10.36;49.84
12636;BME280;6383;50.830;7.210;2023-03-03T13:04:35;101656.53;;;10.21;49.65
12636;BME280;6383;50.830;7.210;2023-03-03T13:07:11;101658.09;;;10.12;49.66
12636;BME280;6383;50.830;7.210;2023-03-03T13:09:54;101658.13;;;10.07;49.29
12636;BME280;6383;50.830;7.210;2023-03-03T13:12:34;101649.09;;;9.97;49.65
12636;BME280;6383;50.830;7.210;2023-03-03T13:15:14;101646.63;;;9.85;49.31
12636;BME280;6383;50.830;7.210;2023-03-03T13:17:57;101652.06;;;9.75;48.83
12636;BME280;6383;50.830;7.210;2023-03-03T13:20:36;101651.50;;;9.63;49.88
12636;BME280;6383;50.830;7.210;2023-03-03T13:23:08;101648.97;;;9.51;49.04
12636;BME280;6383;50.830;7.210;2023-03-03T13:25:48;101649.81;;;9.46;50.57
12636;BME280;6383;50.830;7.210;2023-03-03T13:28:23;101645.69;;;9.39;49.75
12636;BME280;6383;50.830;7.210;2023-03-03T13:30:57;101648.91;;;9.31;50.07
12636;BME280;6383;50.830;7.210;2023-03-03T13:33:31;101643.97;;;9.23;50.06
12636;BME280;6383;50.830;7.210;2023-03-03T13:36:06;101642.59;;;9.15;50.23
12636;BME280;6383;50.830;7.210;2023-03-03T13:38:40;101644.16;;;9.06;50.47
12636;BME280;6383;50.830;7.210;2023-03-03T13:41:15;101646.84;;;8.96;50.56
12636;BME280;6383;50.830;7.210;2023-03-03T13:43:49;101649.50;;;8.86;50.56
12636;BME280;6383;50.830;7.210;2023-03-03T13:46:27;101644.81;;;8.76;50.62
12636;BME280;6383;50.830;7.210;2023-03-03T13:49:19;101641.22;;;8.65;50.98
12636;BME280;6383;50.830;7.210;2023-03-03T13:52:00;101634.59;;;8.51;51.71
12636;BME280;6383;50.830;7.210;2023-03-03T13:55:09;101639.97;;;8.46;51.50
12636;BME280;6383;50.830;7.210;2023-03-03T13:57:44;101635.88;;;8.38;51.40
12636;BME280;6383;50.830;7.210;2023-03-03T14:00:26;101636.63;;;8.34;51.76